header
chart

Reported and forecast weather at local airports

Important: not to be used for flight planning purposes.


EGBB METAR fetched   Wednesday 16th Jan @ 14:51:35
EGBB 161420Z 30007KT 9999 -RA SCT018 BKN040 05/04 Q1001 RERA

EGCC METAR fetched   Wednesday 16th Jan @ 14:51:33
EGCC 161420Z AUTO 23007KT 9999 FEW024 05/03 Q1000 NOSIG

EGGP METAR fetched   Wednesday 16th Jan @ 14:51:33
EGGP 161420Z 28011KT 9999 FEW027 07/04 Q1000

EGNH METAR fetched   Wednesday 16th Jan @ 14:51:34
EGNH 161420Z 26015KT 9999 VCSH FEW004 SCT040 08/04 Q1000

EGNM METAR fetched   Wednesday 16th Jan @ 14:51:34
EGNM 161420Z 26012KT 9999 FEW019 06/02 Q0998

EGOV METAR fetched   Wednesday 16th Jan @ 14:51:36
EGOV 161350Z 26014KT 9999 FEW030 SCT250 08/03 Q1001 BLU NOSIG


EGBB TAF fetched   Wednesday 16th Jan @ 14:51:35
TAF EGBB 161103Z 1612/1712 22012KT 9999 SCT030 BECMG 1612/1615 28010KT TEMPO 1612/1616 6000 RA BKN012 PROB30 TEMPO 1612/1615 29015G25KT 4000 +RA BKN008 TEMPO 1620/1707 7000 SHRA BKN010 PROB30 TEMPO 1704/1707 32015G25KT 4000 SHRASN BKN004 BECMG 1706/1709 34012KT

EGCC TAF fetched   Wednesday 16th Jan @ 14:51:33
TAF EGCC 161105Z 1612/1718 27011KT 9999 SCT028 TEMPO 1612/1614 6000 RA BKN012 PROB30 TEMPO 1612/1613 3000 +RA BKN008 BECMG 1615/1618 21007KT TEMPO 1618/1705 7000 SHRA BKN010 BECMG 1622/1701 32012KT PROB30 TEMPO 1702/1705 33015G25KT 2000 SHRASN BKN004

EGGP TAF fetched   Wednesday 16th Jan @ 14:51:34
TAF EGGP 161105Z 1612/1712 26011KT 9999 SCT030 TEMPO 1612/1613 6000 RA BKN014 BECMG 1615/1618 20007KT TEMPO 1617/1704 7000 SHRA BKN012 PROB30 TEMPO 1617/1622 3000 +SHRAGS BKN009 BKN025CB BECMG 1621/1624 32014KT BECMG 1700/1703 33023G33KT BECMG 1709/1712 33016KT

EGNM TAF fetched   Wednesday 16th Jan @ 14:51:35
TAF TAF EGNM 161105Z 1612/1712 26009KT 9999 FEW013 SCT025 PROB30 TEMPO 1612/1614 6000 RADZ BKN010 PROB30 TEMPO 1618/1703 6000 SHRA BKN008 BECMG 1701/1704 32012KT PROB40 TEMPO 1702/1704 1200 SHSN BKN002 TEMPO 1703/1710 33015G25KT

EGOV TAF fetched   Wednesday 16th Jan @ 14:51:36
TAF TAF EGOV 190525Z 1906/1918 04008KT CAVOK PROB30 TEMPO 1906/1912 6000 SHRA TEMPO 1912/1915 4000 +SHRA SCT020 BKN030CB PROB30 TEMPO 1913/1915 VRBG20G30KT 2500 TSGR BKN012

Every effort is made to ensure that this information is free from errors but as it is provided by a third party the accuracy of the reports cannot be guaranteed.